sensor_id;sensor_type;location;lat;lon;timestamp;P1;durP1;ratioP1;P2;durP2;ratioP2
68989;SDS011;56046;47.270;11.368;2024-03-08T00:01:43;34.30;;;12.70;;
68989;SDS011;56046;47.270;11.368;2024-03-08T00:04:10;33.15;;;13.60;;
68989;SDS011;56046;47.270;11.368;2024-03-08T00:06:35;35.33;;;13.60;;
68989;SDS011;56046;47.270;11.368;2024-03-08T00:09:00;28.98;;;12.30;;
68989;SDS011;56046;47.270;11.368;2024-03-08T00:11:25;29.67;;;11.30;;
68989;SDS011;56046;47.270;11.368;2024-03-08T00:13:51;30.30;;;11.45;;
68989;SDS011;56046;47.270;11.368;2024-03-08T00:16:17;27.38;;;11.02;;
68989;SDS011;56046;47.270;11.368;2024-03-08T00:18:44;29.65;;;11.05;;
68989;SDS011;56046;47.270;11.368;2024-03-08T00:21:09;26.43;;;10.47;;
68989;SDS011;56046;47.270;11.368;2024-03-08T00:23:35;28.25;;;10.32;;
68989;SDS011;56046;47.270;11.368;2024-03-08T00:26:00;25.13;;;10.82;;
68989;SDS011;56046;47.270;11.368;2024-03-08T00:28:25;24.65;;;10.65;;
68989;SDS011;56046;47.270;11.368;2024-03-08T00:30:52;22.60;;;10.02;;
68989;SDS011;56046;47.270;11.368;2024-03-08T00:33:17;21.73;;;9.40;;
68989;SDS011;56046;47.270;11.368;2024-03-08T00:35:43;20.57;;;7.73;;
68989;SDS011;56046;47.270;11.368;2024-03-08T00:38:08;17.67;;;7.20;;
68989;SDS011;56046;47.270;11.368;2024-03-08T00:40:33;15.60;;;6.25;;
68989;SDS011;56046;47.270;11.368;2024-03-08T00:42:58;13.20;;;5.53;;
68989;SDS011;56046;47.270;11.368;2024-03-08T00:45:23;13.52;;;5.88;;
68989;SDS011;56046;47.270;11.368;2024-03-08T00:47:49;14.20;;;5.32;;
68989;SDS011;56046;47.270;11.368;2024-03-08T00:50:14;14.32;;;5.40;;
68989;SDS011;56046;47.270;11.368;2024-03-08T00:52:39;14.93;;;5.45;;
68989;SDS011;56046;47.270;11.368;2024-03-08T00:55:04;12.35;;;5.63;;
68989;SDS011;56046;47.270;11.368;2024-03-08T00:57:30;15.57;;;5.15;;
68989;SDS011;56046;47.270;11.368;2024-03-08T00:59:55;14.03;;;5.50;;
68989;SDS011;56046;47.270;11.368;2024-03-08T01:02:21;11.63;;;4.93;;
68989;SDS011;56046;47.270;11.368;2024-03-08T01:04:48;11.43;;;4.45;;
68989;SDS011;56046;47.270;11.368;2024-03-08T01:07:13;13.67;;;5.40;;
68989;SDS011;56046;47.270;11.368;2024-03-08T01:09:38;13.07;;;5.00;;
68989;SDS011;56046;47.270;11.368;2024-03-08T01:12:03;12.33;;;4.23;;
68989;SDS011;56046;47.270;11.368;2024-03-08T01:14:30;10.55;;;4.47;;
68989;SDS011;56046;47.270;11.368;2024-03-08T01:16:56;13.05;;;4.95;;
68989;SDS011;56046;47.270;11.368;2024-03-08T01:19:21;11.65;;;4.25;;
68989;SDS011;56046;47.270;11.368;2024-03-08T01:21:46;11.80;;;4.47;;
68989;SDS011;56046;47.270;11.368;2024-03-08T01:24:12;11.87;;;4.40;;
68989;SDS011;56046;47.270;11.368;2024-03-08T01:26:37;9.10;;;3.87;;
68989;SDS011;56046;47.270;11.368;2024-03-08T01:29:03;10.85;;;4.72;;
68989;SDS011;56046;47.270;11.368;2024-03-08T01:31:29;12.00;;;4.60;;
68989;SDS011;56046;47.270;11.368;2024-03-08T01:33:54;12.32;;;4.63;;
68989;SDS011;56046;47.270;11.368;2024-03-08T01:36:20;10.87;;;4.50;;
68989;SDS011;56046;47.270;11.368;2024-03-08T01:38:46;13.73;;;5.00;;
68989;SDS011;56046;47.270;11.368;2024-03-08T01:41:11;14.07;;;4.97;;
68989;SDS011;56046;47.270;11.368;2024-03-08T01:43:37;13.07;;;5.00;;
68989;SDS011;56046;47.270;11.368;2024-03-08T01:46:03;12.60;;;4.68;;
68989;SDS011;56046;47.270;11.368;2024-03-08T01:48:30;13.40;;;5.17;;
68989;SDS011;56046;47.270;11.368;2024-03-08T01:50:56;19.27;;;6.40;;
68989;SDS011;56046;47.270;11.368;2024-03-08T01:53:22;14.57;;;5.87;;
68989;SDS011;56046;47.270;11.368;2024-03-08T01:55:48;15.73;;;5.82;;
68989;SDS011;56046;47.270;11.368;2024-03-08T01:58:13;18.88;;;6.20;;
68989;SDS011;56046;47.270;11.368;2024-03-08T02:00:42;16.35;;;6.05;;
68989;SDS011;56046;47.270;11.368;2024-03-08T02:03:08;14.82;;;5.43;;
68989;SDS011;56046;47.270;11.368;2024-03-08T02:05:34;14.17;;;5.07;;
68989;SDS011;56046;47.270;11.368;2024-03-08T02:07:59;13.57;;;5.37;;
68989;SDS011;56046;47.270;11.368;2024-03-08T02:10:24;15.20;;;5.23;;
68989;SDS011;56046;47.270;11.368;2024-03-08T02:12:49;11.90;;;4.40;;
68989;SDS011;56046;47.270;11.368;2024-03-08T02:15:15;15.82;;;5.20;;
68989;SDS011;56046;47.270;11.368;2024-03-08T02:17:41;14.45;;;5.13;;
68989;SDS011;56046;47.270;11.368;2024-03-08T02:20:07;14.63;;;5.13;;
68989;SDS011;56046;47.270;11.368;2024-03-08T02:22:34;15.20;;;5.88;;
68989;SDS011;56046;47.270;11.368;2024-03-08T02:24:59;15.93;;;5.23;;
68989;SDS011;56046;47.270;11.368;2024-03-08T02:27:26;12.13;;;5.40;;
68989;SDS011;56046;47.270;11.368;2024-03-08T02:29:53;13.43;;;5.25;;
68989;SDS011;56046;47.270;11.368;2024-03-08T02:32:23;16.17;;;5.68;;
68989;SDS011;56046;47.270;11.368;2024-03-08T02:34:48;15.10;;;6.67;;
68989;SDS011;56046;47.270;11.368;2024-03-08T02:37:13;15.43;;;5.70;;
68989;SDS011;56046;47.270;11.368;2024-03-08T02:39:38;16.07;;;5.60;;
68989;SDS011;56046;47.270;11.368;2024-03-08T02:42:04;13.93;;;4.77;;
68989;SDS011;56046;47.270;11.368;2024-03-08T02:44:29;16.90;;;6.10;;
68989;SDS011;56046;47.270;11.368;2024-03-08T02:46:54;15.13;;;5.77;;
68989;SDS011;56046;47.270;11.368;2024-03-08T02:49:20;18.17;;;6.53;;
68989;SDS011;56046;47.270;11.368;2024-03-08T02:51:45;17.23;;;6.25;;
68989;SDS011;56046;47.270;11.368;2024-03-08T02:54:11;15.13;;;5.97;;
68989;SDS011;56046;47.270;11.368;2024-03-08T02:56:36;17.60;;;6.70;;
68989;SDS011;56046;47.270;11.368;2024-03-08T02:59:01;14.37;;;5.93;;
68989;SDS011;56046;47.270;11.368;2024-03-08T03:01:27;16.38;;;6.18;;
68989;SDS011;56046;47.270;11.368;2024-03-08T03:03:53;17.87;;;6.50;;
68989;SDS011;56046;47.270;11.368;2024-03-08T03:06:18;16.73;;;6.10;;
68989;SDS011;56046;47.270;11.368;2024-03-08T03:08:46;16.67;;;6.25;;
68989;SDS011;56046;47.270;11.368;2024-03-08T03:11:11;14.17;;;5.60;;
68989;SDS011;56046;47.270;11.368;2024-03-08T03:13:38;15.23;;;5.32;;
68989;SDS011;56046;47.270;11.368;2024-03-08T03:16:03;16.53;;;6.10;;
68989;SDS011;56046;47.270;11.368;2024-03-08T03:18:29;16.17;;;6.30;;
68989;SDS011;56046;47.270;11.368;2024-03-08T03:20:54;15.63;;;5.30;;
68989;SDS011;56046;47.270;11.368;2024-03-08T03:23:19;20.07;;;7.50;;
68989;SDS011;56046;47.270;11.368;2024-03-08T03:25:45;18.75;;;5.65;;
68989;SDS011;56046;47.270;11.368;2024-03-08T03:28:11;18.30;;;5.50;;
68989;SDS011;56046;47.270;11.368;2024-03-08T03:30:39;14.45;;;5.68;;
68989;SDS011;56046;47.270;11.368;2024-03-08T03:33:05;19.40;;;6.43;;
68989;SDS011;56046;47.270;11.368;2024-03-08T03:35:32;17.02;;;6.38;;
68989;SDS011;56046;47.270;11.368;2024-03-08T03:37:59;20.23;;;6.35;;
68989;SDS011;56046;47.270;11.368;2024-03-08T03:40:42;19.10;;;6.87;;
68989;SDS011;56046;47.270;11.368;2024-03-08T03:43:07;17.35;;;6.88;;
68989;SDS011;56046;47.270;11.368;2024-03-08T03:45:34;18.80;;;6.37;;
68989;SDS011;56046;47.270;11.368;2024-03-08T03:48:01;16.60;;;6.03;;
68989;SDS011;56046;47.270;11.368;2024-03-08T03:50:27;15.00;;;6.20;;
68989;SDS011;56046;47.270;11.368;2024-03-08T03:52:52;17.47;;;6.57;;
68989;SDS011;56046;47.270;11.368;2024-03-08T03:55:17;16.63;;;5.40;;
68989;SDS011;56046;47.270;11.368;2024-03-08T03:57:44;17.88;;;6.47;;
68989;SDS011;56046;47.270;11.368;2024-03-08T04:00:10;15.82;;;5.70;;
68989;SDS011;56046;47.270;11.368;2024-03-08T04:02:39;17.27;;;6.37;;
68989;SDS011;56046;47.270;11.368;2024-03-08T04:05:08;19.55;;;5.88;;
68989;SDS011;56046;47.270;11.368;2024-03-08T04:07:33;13.52;;;4.88;;
68989;SDS011;56046;47.270;11.368;2024-03-08T04:09:59;15.60;;;5.80;;
68989;SDS011;56046;47.270;11.368;2024-03-08T04:12:24;17.10;;;5.72;;
68989;SDS011;56046;47.270;11.368;2024-03-08T04:14:50;14.27;;;4.77;;
68989;SDS011;56046;47.270;11.368;2024-03-08T04:17:15;17.67;;;6.00;;
68989;SDS011;56046;47.270;11.368;2024-03-08T04:19:42;18.27;;;5.27;;
68989;SDS011;56046;47.270;11.368;2024-03-08T04:22:07;16.07;;;5.63;;
68989;SDS011;56046;47.270;11.368;2024-03-08T04:24:32;15.40;;;5.50;;
68989;SDS011;56046;47.270;11.368;2024-03-08T04:26:58;18.00;;;5.97;;
68989;SDS011;56046;47.270;11.368;2024-03-08T04:29:23;14.50;;;6.03;;
68989;SDS011;56046;47.270;11.368;2024-03-08T04:31:49;14.90;;;5.53;;
68989;SDS011;56046;47.270;11.368;2024-03-08T04:34:14;15.63;;;5.57;;
68989;SDS011;56046;47.270;11.368;2024-03-08T04:36:39;14.40;;;5.20;;
68989;SDS011;56046;47.270;11.368;2024-03-08T04:39:05;14.87;;;5.27;;
68989;SDS011;56046;47.270;11.368;2024-03-08T04:41:30;16.47;;;5.73;;
68989;SDS011;56046;47.270;11.368;2024-03-08T04:43:55;13.80;;;5.40;;
68989;SDS011;56046;47.270;11.368;2024-03-08T04:46:22;15.52;;;5.82;;
68989;SDS011;56046;47.270;11.368;2024-03-08T04:48:48;15.23;;;5.27;;
68989;SDS011;56046;47.270;11.368;2024-03-08T04:51:13;15.27;;;6.17;;
68989;SDS011;56046;47.270;11.368;2024-03-08T04:53:38;20.50;;;7.30;;
68989;SDS011;56046;47.270;11.368;2024-03-08T04:56:03;16.37;;;6.30;;
68989;SDS011;56046;47.270;11.368;2024-03-08T04:58:32;18.63;;;6.97;;
68989;SDS011;56046;47.270;11.368;2024-03-08T05:00:59;16.42;;;6.10;;
68989;SDS011;56046;47.270;11.368;2024-03-08T05:03:24;18.50;;;5.83;;
68989;SDS011;56046;47.270;11.368;2024-03-08T05:05:51;20.88;;;7.47;;
68989;SDS011;56046;47.270;11.368;2024-03-08T05:08:17;24.80;;;8.40;;
68989;SDS011;56046;47.270;11.368;2024-03-08T05:10:43;21.95;;;7.03;;
68989;SDS011;56046;47.270;11.368;2024-03-08T05:13:09;19.23;;;6.87;;
68989;SDS011;56046;47.270;11.368;2024-03-08T05:15:34;21.53;;;7.13;;
68989;SDS011;56046;47.270;11.368;2024-03-08T05:18:00;18.93;;;7.23;;
68989;SDS011;56046;47.270;11.368;2024-03-08T05:20:25;22.58;;;8.45;;
68989;SDS011;56046;47.270;11.368;2024-03-08T05:22:51;25.80;;;8.65;;
68989;SDS011;56046;47.270;11.368;2024-03-08T05:25:16;24.67;;;8.27;;
68989;SDS011;56046;47.270;11.368;2024-03-08T05:27:42;20.48;;;7.93;;
68989;SDS011;56046;47.270;11.368;2024-03-08T05:30:08;22.60;;;7.63;;
68989;SDS011;56046;47.270;11.368;2024-03-08T05:32:39;21.58;;;7.00;;
68989;SDS011;56046;47.270;11.368;2024-03-08T05:35:04;22.17;;;7.20;;
68989;SDS011;56046;47.270;11.368;2024-03-08T05:37:32;23.85;;;7.65;;
68989;SDS011;56046;47.270;11.368;2024-03-08T05:39:57;21.37;;;7.23;;
68989;SDS011;56046;47.270;11.368;2024-03-08T05:42:23;17.98;;;6.82;;
68989;SDS011;56046;47.270;11.368;2024-03-08T05:44:48;20.95;;;7.18;;
68989;SDS011;56046;47.270;11.368;2024-03-08T05:47:14;18.75;;;8.00;;
68989;SDS011;56046;47.270;11.368;2024-03-08T05:49:41;18.58;;;6.78;;
68989;SDS011;56046;47.270;11.368;2024-03-08T05:52:06;20.23;;;7.30;;
68989;SDS011;56046;47.270;11.368;2024-03-08T05:54:32;20.53;;;7.07;;
68989;SDS011;56046;47.270;11.368;2024-03-08T05:56:58;17.75;;;6.68;;
68989;SDS011;56046;47.270;11.368;2024-03-08T05:59:23;18.10;;;7.75;;
68989;SDS011;56046;47.270;11.368;2024-03-08T06:01:48;25.27;;;9.60;;
68989;SDS011;56046;47.270;11.368;2024-03-08T06:04:14;17.47;;;7.53;;
68989;SDS011;56046;47.270;11.368;2024-03-08T06:06:39;17.70;;;7.10;;
68989;SDS011;56046;47.270;11.368;2024-03-08T06:09:04;17.87;;;6.73;;
68989;SDS011;56046;47.270;11.368;2024-03-08T06:11:42;18.42;;;7.70;;
68989;SDS011;56046;47.270;11.368;2024-03-08T06:14:08;21.33;;;9.30;;
68989;SDS011;56046;47.270;11.368;2024-03-08T06:16:33;19.67;;;8.53;;
68989;SDS011;56046;47.270;11.368;2024-03-08T06:18:58;19.42;;;8.95;;
68989;SDS011;56046;47.270;11.368;2024-03-08T06:21:26;20.77;;;8.77;;
68989;SDS011;56046;47.270;11.368;2024-03-08T06:23:54;20.47;;;7.93;;
68989;SDS011;56046;47.270;11.368;2024-03-08T06:26:20;17.05;;;7.07;;
68989;SDS011;56046;47.270;11.368;2024-03-08T06:28:47;20.95;;;7.80;;
68989;SDS011;56046;47.270;11.368;2024-03-08T06:31:12;16.87;;;6.97;;
68989;SDS011;56046;47.270;11.368;2024-03-08T06:33:37;18.83;;;7.70;;
68989;SDS011;56046;47.270;11.368;2024-03-08T06:36:03;15.97;;;6.67;;
68989;SDS011;56046;47.270;11.368;2024-03-08T06:38:28;17.30;;;6.88;;
68989;SDS011;56046;47.270;11.368;2024-03-08T06:40:55;18.67;;;7.30;;
68989;SDS011;56046;47.270;11.368;2024-03-08T06:43:21;17.30;;;7.35;;
68989;SDS011;56046;47.270;11.368;2024-03-08T06:45:46;17.30;;;6.83;;
68989;SDS011;56046;47.270;11.368;2024-03-08T06:48:16;16.88;;;7.07;;
68989;SDS011;56046;47.270;11.368;2024-03-08T06:50:42;17.70;;;7.30;;
68989;SDS011;56046;47.270;11.368;2024-03-08T06:53:07;17.45;;;7.32;;
68989;SDS011;56046;47.270;11.368;2024-03-08T06:55:33;16.30;;;7.30;;
68989;SDS011;56046;47.270;11.368;2024-03-08T06:57:58;20.07;;;7.93;;
68989;SDS011;56046;47.270;11.368;2024-03-08T07:00:23;18.93;;;8.43;;
68989;SDS011;56046;47.270;11.368;2024-03-08T07:02:52;20.80;;;8.50;;
68989;SDS011;56046;47.270;11.368;2024-03-08T07:05:18;16.33;;;7.70;;
68989;SDS011;56046;47.270;11.368;2024-03-08T07:07:43;16.37;;;7.57;;
68989;SDS011;56046;47.270;11.368;2024-03-08T07:10:09;18.67;;;7.97;;
68989;SDS011;56046;47.270;11.368;2024-03-08T07:12:40;19.42;;;8.63;;
68989;SDS011;56046;47.270;11.368;2024-03-08T07:15:05;19.23;;;7.53;;
68989;SDS011;56046;47.270;11.368;2024-03-08T07:17:31;17.55;;;7.47;;
68989;SDS011;56046;47.270;11.368;2024-03-08T07:19:56;17.23;;;6.63;;
68989;SDS011;56046;47.270;11.368;2024-03-08T07:22:24;15.20;;;6.27;;
68989;SDS011;56046;47.270;11.368;2024-03-08T07:24:49;15.68;;;6.43;;
68989;SDS011;56046;47.270;11.368;2024-03-08T07:27:35;17.83;;;7.05;;
68989;SDS011;56046;47.270;11.368;2024-03-08T07:30:01;16.17;;;6.87;;
68989;SDS011;56046;47.270;11.368;2024-03-08T07:32:27;16.48;;;7.07;;
68989;SDS011;56046;47.270;11.368;2024-03-08T07:34:54;15.70;;;7.57;;
68989;SDS011;56046;47.270;11.368;2024-03-08T07:37:20;16.13;;;7.00;;
68989;SDS011;56046;47.270;11.368;2024-03-08T07:39:45;18.02;;;6.78;;
68989;SDS011;56046;47.270;11.368;2024-03-08T07:42:11;21.63;;;7.53;;
68989;SDS011;56046;47.270;11.368;2024-03-08T07:44:36;16.93;;;7.03;;
68989;SDS011;56046;47.270;11.368;2024-03-08T07:47:02;15.33;;;6.93;;
68989;SDS011;56046;47.270;11.368;2024-03-08T07:49:28;19.35;;;8.23;;
68989;SDS011;56046;47.270;11.368;2024-03-08T07:51:54;16.40;;;7.80;;
68989;SDS011;56046;47.270;11.368;2024-03-08T07:54:19;15.27;;;6.83;;
68989;SDS011;56046;47.270;11.368;2024-03-08T07:56:45;17.92;;;6.78;;
68989;SDS011;56046;47.270;11.368;2024-03-08T07:59:10;16.90;;;6.63;;
68989;SDS011;56046;47.270;11.368;2024-03-08T08:01:37;15.52;;;6.72;;
68989;SDS011;56046;47.270;11.368;2024-03-08T08:04:02;18.97;;;7.90;;
68989;SDS011;56046;47.270;11.368;2024-03-08T08:06:27;19.93;;;8.53;;
68989;SDS011;56046;47.270;11.368;2024-03-08T08:08:56;19.60;;;8.27;;
68989;SDS011;56046;47.270;11.368;2024-03-08T08:11:22;17.93;;;8.07;;
68989;SDS011;56046;47.270;11.368;2024-03-08T08:13:47;20.03;;;8.77;;
68989;SDS011;56046;47.270;11.368;2024-03-08T08:16:12;17.80;;;7.95;;
68989;SDS011;56046;47.270;11.368;2024-03-08T08:18:38;19.97;;;8.67;;
68989;SDS011;56046;47.270;11.368;2024-03-08T08:21:04;21.92;;;9.10;;
68989;SDS011;56046;47.270;11.368;2024-03-08T08:23:31;22.48;;;9.02;;
68989;SDS011;56046;47.270;11.368;2024-03-08T08:25:56;20.43;;;8.90;;
68989;SDS011;56046;47.270;11.368;2024-03-08T08:28:21;21.10;;;8.93;;
68989;SDS011;56046;47.270;11.368;2024-03-08T08:30:47;18.93;;;8.33;;
68989;SDS011;56046;47.270;11.368;2024-03-08T08:33:13;17.40;;;8.25;;
68989;SDS011;56046;47.270;11.368;2024-03-08T08:35:39;20.83;;;9.20;;
68989;SDS011;56046;47.270;11.368;2024-03-08T08:38:04;20.03;;;8.70;;
68989;SDS011;56046;47.270;11.368;2024-03-08T08:40:30;19.47;;;8.47;;
68989;SDS011;56046;47.270;11.368;2024-03-08T08:42:58;19.20;;;7.88;;
68989;SDS011;56046;47.270;11.368;2024-03-08T08:45:23;17.73;;;8.20;;
68989;SDS011;56046;47.270;11.368;2024-03-08T08:47:48;17.53;;;8.23;;
68989;SDS011;56046;47.270;11.368;2024-03-08T08:50:14;18.65;;;7.88;;
68989;SDS011;56046;47.270;11.368;2024-03-08T08:52:41;17.90;;;8.00;;
68989;SDS011;56046;47.270;11.368;2024-03-08T08:55:08;16.30;;;6.97;;
68989;SDS011;56046;47.270;11.368;2024-03-08T08:57:34;17.45;;;6.25;;
68989;SDS011;56046;47.270;11.368;2024-03-08T09:00:00;15.23;;;6.18;;
68989;SDS011;56046;47.270;11.368;2024-03-08T09:02:26;11.33;;;4.90;;
68989;SDS011;56046;47.270;11.368;2024-03-08T09:04:51;10.40;;;4.67;;
68989;SDS011;56046;47.270;11.368;2024-03-08T09:07:16;11.93;;;4.57;;
68989;SDS011;56046;47.270;11.368;2024-03-08T09:09:44;11.93;;;4.88;;
68989;SDS011;56046;47.270;11.368;2024-03-08T09:12:09;7.70;;;3.47;;
68989;SDS011;56046;47.270;11.368;2024-03-08T09:14:38;11.75;;;3.55;;
68989;SDS011;56046;47.270;11.368;2024-03-08T09:17:03;6.10;;;2.60;;
68989;SDS011;56046;47.270;11.368;2024-03-08T09:19:29;8.43;;;3.40;;
68989;SDS011;56046;47.270;11.368;2024-03-08T09:21:54;8.23;;;3.10;;
68989;SDS011;56046;47.270;11.368;2024-03-08T09:24:20;8.07;;;3.08;;
68989;SDS011;56046;47.270;11.368;2024-03-08T09:26:45;6.95;;;3.40;;
68989;SDS011;56046;47.270;11.368;2024-03-08T09:29:11;9.40;;;2.93;;
68989;SDS011;56046;47.270;11.368;2024-03-08T09:31:36;7.30;;;2.70;;
68989;SDS011;56046;47.270;11.368;2024-03-08T09:34:03;7.55;;;2.90;;
68989;SDS011;56046;47.270;11.368;2024-03-08T09:36:28;7.05;;;3.05;;
68989;SDS011;56046;47.270;11.368;2024-03-08T09:38:54;6.30;;;2.47;;
68989;SDS011;56046;47.270;11.368;2024-03-08T09:41:20;7.77;;;2.60;;
68989;SDS011;56046;47.270;11.368;2024-03-08T09:43:45;8.33;;;2.93;;
68989;SDS011;56046;47.270;11.368;2024-03-08T09:46:11;6.75;;;2.80;;
68989;SDS011;56046;47.270;11.368;2024-03-08T09:48:37;7.35;;;2.80;;
68989;SDS011;56046;47.270;11.368;2024-03-08T09:51:03;7.38;;;2.65;;
68989;SDS011;56046;47.270;11.368;2024-03-08T09:53:29;7.03;;;3.03;;
68989;SDS011;56046;47.270;11.368;2024-03-08T09:55:55;6.53;;;2.85;;
68989;SDS011;56046;47.270;11.368;2024-03-08T09:58:20;6.50;;;3.00;;
68989;SDS011;56046;47.270;11.368;2024-03-08T10:00:52;6.68;;;2.92;;
68989;SDS011;56046;47.270;11.368;2024-03-08T10:03:17;7.43;;;2.67;;
68989;SDS011;56046;47.270;11.368;2024-03-08T10:05:44;6.53;;;2.65;;
68989;SDS011;56046;47.270;11.368;2024-03-08T10:08:09;6.83;;;2.80;;
68989;SDS011;56046;47.270;11.368;2024-03-08T10:10:35;5.93;;;2.65;;
68989;SDS011;56046;47.270;11.368;2024-03-08T10:13:01;5.53;;;2.27;;
68989;SDS011;56046;47.270;11.368;2024-03-08T10:15:29;7.20;;;2.37;;
68989;SDS011;56046;47.270;11.368;2024-03-08T10:17:57;10.35;;;3.55;;
68989;SDS011;56046;47.270;11.368;2024-03-08T10:20:22;6.20;;;2.40;;
68989;SDS011;56046;47.270;11.368;2024-03-08T10:22:49;5.20;;;2.13;;
68989;SDS011;56046;47.270;11.368;2024-03-08T10:25:14;5.90;;;2.00;;
68989;SDS011;56046;47.270;11.368;2024-03-08T10:27:39;5.83;;;2.00;;
68989;SDS011;56046;47.270;11.368;2024-03-08T10:30:12;4.43;;;1.90;;
68989;SDS011;56046;47.270;11.368;2024-03-08T10:32:38;6.82;;;2.00;;
68989;SDS011;56046;47.270;11.368;2024-03-08T10:35:06;4.70;;;2.05;;
68989;SDS011;56046;47.270;11.368;2024-03-08T10:37:32;4.38;;;1.92;;
68989;SDS011;56046;47.270;11.368;2024-03-08T10:40:04;4.60;;;1.77;;
68989;SDS011;56046;47.270;11.368;2024-03-08T10:42:35;4.40;;;2.10;;
68989;SDS011;56046;47.270;11.368;2024-03-08T10:47:29;6.07;;;2.10;;
68989;SDS011;56046;47.270;11.368;2024-03-08T10:50:18;4.32;;;1.95;;
68989;SDS011;56046;47.270;11.368;2024-03-08T10:52:41;5.47;;;2.10;;
68989;SDS011;56046;47.270;11.368;2024-03-08T10:55:07;6.57;;;1.97;;
68989;SDS011;56046;47.270;11.368;2024-03-08T10:57:38;4.57;;;1.67;;
68989;SDS011;56046;47.270;11.368;2024-03-08T11:00:04;3.90;;;1.42;;
68989;SDS011;56046;47.270;11.368;2024-03-08T11:02:32;4.75;;;2.10;;
68989;SDS011;56046;47.270;11.368;2024-03-08T11:04:58;4.03;;;1.70;;
68989;SDS011;56046;47.270;11.368;2024-03-08T11:07:24;3.83;;;1.50;;
68989;SDS011;56046;47.270;11.368;2024-03-08T11:09:52;3.95;;;1.35;;
68989;SDS011;56046;47.270;11.368;2024-03-08T11:12:21;4.13;;;1.53;;
68989;SDS011;56046;47.270;11.368;2024-03-08T11:14:47;4.10;;;1.80;;
68989;SDS011;56046;47.270;11.368;2024-03-08T11:18:00;4.95;;;1.70;;
68989;SDS011;56046;47.270;11.368;2024-03-08T11:20:03;4.40;;;1.83;;
68989;SDS011;56046;47.270;11.368;2024-03-08T11:22:33;5.90;;;1.83;;
68989;SDS011;56046;47.270;11.368;2024-03-08T11:25:08;5.15;;;1.58;;
68989;SDS011;56046;47.270;11.368;2024-03-08T11:27:37;3.90;;;1.60;;
68989;SDS011;56046;47.270;11.368;2024-03-08T11:30:03;4.93;;;2.47;;
68989;SDS011;56046;47.270;11.368;2024-03-08T11:32:45;4.05;;;1.88;;
68989;SDS011;56046;47.270;11.368;2024-03-08T11:35:21;5.13;;;1.70;;
68989;SDS011;56046;47.270;11.368;2024-03-08T11:37:48;3.50;;;1.20;;
68989;SDS011;56046;47.270;11.368;2024-03-08T11:40:13;2.37;;;1.40;;
68989;SDS011;56046;47.270;11.368;2024-03-08T11:42:47;4.55;;;1.60;;
68989;SDS011;56046;47.270;11.368;2024-03-08T11:45:17;3.60;;;1.90;;
68989;SDS011;56046;47.270;11.368;2024-03-08T11:47:42;3.63;;;1.50;;
68989;SDS011;56046;47.270;11.368;2024-03-08T11:50:10;4.20;;;1.50;;
68989;SDS011;56046;47.270;11.368;2024-03-08T11:52:36;4.70;;;1.63;;
68989;SDS011;56046;47.270;11.368;2024-03-08T11:55:04;2.80;;;1.40;;
68989;SDS011;56046;47.270;11.368;2024-03-08T11:57:30;2.00;;;1.27;;
68989;SDS011;56046;47.270;11.368;2024-03-08T11:59:55;3.47;;;1.30;;
68989;SDS011;56046;47.270;11.368;2024-03-08T12:02:31;1.98;;;1.00;;
68989;SDS011;56046;47.270;11.368;2024-03-08T12:04:56;2.20;;;1.20;;
68989;SDS011;56046;47.270;11.368;2024-03-08T12:07:22;4.28;;;1.10;;
68989;SDS011;56046;47.270;11.368;2024-03-08T12:12:37;3.00;;;1.20;;
68989;SDS011;56046;47.270;11.368;2024-03-08T12:15:02;2.33;;;1.33;;
68989;SDS011;56046;47.270;11.368;2024-03-08T12:17:29;2.92;;;1.40;;
68989;SDS011;56046;47.270;11.368;2024-03-08T12:19:54;2.43;;;1.20;;
68989;SDS011;56046;47.270;11.368;2024-03-08T12:22:24;2.53;;;1.30;;
68989;SDS011;56046;47.270;11.368;2024-03-08T12:25:02;2.17;;;1.20;;
68989;SDS011;56046;47.270;11.368;2024-03-08T12:27:29;2.50;;;1.15;;
68989;SDS011;56046;47.270;11.368;2024-03-08T12:29:55;1.90;;;1.20;;
68989;SDS011;56046;47.270;11.368;2024-03-08T12:32:20;3.30;;;1.17;;
68989;SDS011;56046;47.270;11.368;2024-03-08T12:34:51;1.38;;;0.68;;
68989;SDS011;56046;47.270;11.368;2024-03-08T12:37:17;2.05;;;1.00;;
68989;SDS011;56046;47.270;11.368;2024-03-08T12:39:42;2.67;;;0.60;;
68989;SDS011;56046;47.270;11.368;2024-03-08T12:42:07;2.20;;;0.80;;
68989;SDS011;56046;47.270;11.368;2024-03-08T12:44:33;1.83;;;0.73;;
68989;SDS011;56046;47.270;11.368;2024-03-08T12:46:59;1.23;;;0.50;;
68989;SDS011;56046;47.270;11.368;2024-03-08T12:49:24;2.40;;;0.70;;
68989;SDS011;56046;47.270;11.368;2024-03-08T12:51:50;1.70;;;0.70;;
68989;SDS011;56046;47.270;11.368;2024-03-08T12:54:17;1.30;;;0.90;;
68989;SDS011;56046;47.270;11.368;2024-03-08T12:56:42;1.67;;;0.80;;
68989;SDS011;56046;47.270;11.368;2024-03-08T12:59:07;1.87;;;0.80;;
68989;SDS011;56046;47.270;11.368;2024-03-08T13:01:33;2.43;;;1.00;;
68989;SDS011;56046;47.270;11.368;2024-03-08T13:03:58;1.30;;;0.73;;
68989;SDS011;56046;47.270;11.368;2024-03-08T13:06:24;1.60;;;0.90;;
68989;SDS011;56046;47.270;11.368;2024-03-08T13:08:52;1.40;;;0.90;;
68989;SDS011;56046;47.270;11.368;2024-03-08T13:11:18;1.88;;;0.88;;
68989;SDS011;56046;47.270;11.368;2024-03-08T13:13:44;2.33;;;0.85;;
68989;SDS011;56046;47.270;11.368;2024-03-08T13:16:10;1.20;;;0.90;;
68989;SDS011;56046;47.270;11.368;2024-03-08T13:18:36;1.65;;;0.80;;
68989;SDS011;56046;47.270;11.368;2024-03-08T13:21:01;1.83;;;0.83;;
68989;SDS011;56046;47.270;11.368;2024-03-08T13:23:31;2.00;;;1.20;;
68989;SDS011;56046;47.270;11.368;2024-03-08T13:25:57;1.98;;;0.80;;
68989;SDS011;56046;47.270;11.368;2024-03-08T13:28:22;1.37;;;0.83;;
68989;SDS011;56046;47.270;11.368;2024-03-08T13:30:53;2.60;;;1.20;;
68989;SDS011;56046;47.270;11.368;2024-03-08T13:33:18;1.50;;;1.00;;
68989;SDS011;56046;47.270;11.368;2024-03-08T13:35:44;1.48;;;0.93;;
68989;SDS011;56046;47.270;11.368;2024-03-08T13:38:09;2.20;;;1.10;;
68989;SDS011;56046;47.270;11.368;2024-03-08T13:40:38;1.80;;;1.10;;
68989;SDS011;56046;47.270;11.368;2024-03-08T13:43:05;2.03;;;1.03;;
68989;SDS011;56046;47.270;11.368;2024-03-08T13:45:32;2.03;;;1.20;;
68989;SDS011;56046;47.270;11.368;2024-03-08T13:47:58;1.90;;;0.90;;
68989;SDS011;56046;47.270;11.368;2024-03-08T13:50:24;2.87;;;1.70;;
68989;SDS011;56046;47.270;11.368;2024-03-08T13:52:51;2.20;;;0.98;;
68989;SDS011;56046;47.270;11.368;2024-03-08T13:55:19;2.90;;;1.40;;
68989;SDS011;56046;47.270;11.368;2024-03-08T13:57:45;2.85;;;0.85;;
68989;SDS011;56046;47.270;11.368;2024-03-08T14:00:11;3.67;;;1.30;;
68989;SDS011;56046;47.270;11.368;2024-03-08T14:02:36;2.83;;;1.30;;
68989;SDS011;56046;47.270;11.368;2024-03-08T14:05:02;2.83;;;0.80;;
68989;SDS011;56046;47.270;11.368;2024-03-08T14:07:27;2.93;;;1.20;;
68989;SDS011;56046;47.270;11.368;2024-03-08T14:09:54;3.08;;;1.30;;
68989;SDS011;56046;47.270;11.368;2024-03-08T14:12:19;2.17;;;1.10;;
68989;SDS011;56046;47.270;11.368;2024-03-08T14:14:45;2.15;;;1.30;;
68989;SDS011;56046;47.270;11.368;2024-03-08T14:17:10;3.87;;;1.67;;
68989;SDS011;56046;47.270;11.368;2024-03-08T14:19:36;2.03;;;1.00;;
68989;SDS011;56046;47.270;11.368;2024-03-08T14:22:01;2.90;;;1.08;;
68989;SDS011;56046;47.270;11.368;2024-03-08T14:24:29;2.77;;;1.10;;
68989;SDS011;56046;47.270;11.368;2024-03-08T14:26:54;1.80;;;0.90;;